sensor_id;sensor_type;location;lat;lon;timestamp;pressure;altitude;pressure_sealevel;temperature;humidity
23131;BME280;11734;51.046;13.778;2022-09-12T00:01:15;70806.38;;;15.05;100.00
23131;BME280;11734;51.046;13.778;2022-09-12T00:03:43;70847.16;;;15.08;100.00
23131;BME280;11734;51.046;13.778;2022-09-12T00:06:18;70803.41;;;15.07;100.00
23131;BME280;11734;51.046;13.778;2022-09-12T00:08:50;70779.47;;;15.07;100.00
23131;BME280;11734;51.046;13.778;2022-09-12T00:11:18;70832.66;;;15.12;100.00
23131;BME280;11734;51.046;13.778;2022-09-12T00:13:45;70859.53;;;15.14;100.00
23131;BME280;11734;51.046;13.778;2022-09-12T00:16:24;70882.00;;;15.15;100.00
23131;BME280;11734;51.046;13.778;2022-09-12T00:18:52;70874.31;;;15.18;100.00
23131;BME280;11734;51.046;13.778;2022-09-12T00:21:21;70868.69;;;15.20;100.00
23131;BME280;11734;51.046;13.778;2022-09-12T00:23:49;70850.66;;;15.20;100.00
23131;BME280;11734;51.046;13.778;2022-09-12T00:26:18;70857.72;;;15.22;100.00
23131;BME280;11734;51.046;13.778;2022-09-12T00:28:46;70851.50;;;15.23;100.00
23131;BME280;11734;51.046;13.778;2022-09-12T00:31:16;70877.25;;;15.25;100.00
23131;BME280;11734;51.046;13.778;2022-09-12T00:33:44;70888.75;;;15.28;100.00
23131;BME280;11734;51.046;13.778;2022-09-12T00:36:15;70848.22;;;15.27;100.00
23131;BME280;11734;51.046;13.778;2022-09-12T00:38:43;70881.66;;;15.26;100.00
23131;BME280;11734;51.046;13.778;2022-09-12T00:41:27;70844.38;;;15.26;100.00
23131;BME280;11734;51.046;13.778;2022-09-12T00:43:58;70863.03;;;15.26;100.00
23131;BME280;11734;51.046;13.778;2022-09-12T00:49:13;70899.09;;;15.25;100.00
23131;BME280;11734;51.046;13.778;2022-09-12T00:51:46;70884.91;;;15.27;100.00
23131;BME280;11734;51.046;13.778;2022-09-12T00:54:20;70882.50;;;15.29;100.00
23131;BME280;11734;51.046;13.778;2022-09-12T00:56:52;70859.47;;;15.28;100.00
23131;BME280;11734;51.046;13.778;2022-09-12T00:59:29;70813.38;;;15.20;100.00
23131;BME280;11734;51.046;13.778;2022-09-12T01:01:58;70876.34;;;15.22;100.00
23131;BME280;11734;51.046;13.778;2022-09-12T01:04:27;70865.69;;;15.22;100.00
23131;BME280;11734;51.046;13.778;2022-09-12T01:06:56;70823.50;;;15.10;100.00
23131;BME280;11734;51.046;13.778;2022-09-12T01:09:25;70838.88;;;15.10;100.00
23131;BME280;11734;51.046;13.778;2022-09-12T01:11:52;70846.00;;;15.07;100.00
23131;BME280;11734;51.046;13.778;2022-09-12T01:14:21;70859.03;;;15.00;100.00
23131;BME280;11734;51.046;13.778;2022-09-12T01:16:49;70845.41;;;15.02;100.00
23131;BME280;11734;51.046;13.778;2022-09-12T01:43:49;70792.09;;;14.72;100.00
23131;BME280;11734;51.046;13.778;2022-09-12T01:46:26;70760.78;;;14.73;100.00
23131;BME280;11734;51.046;13.778;2022-09-12T01:49:06;70754.00;;;14.69;100.00
23131;BME280;11734;51.046;13.778;2022-09-12T01:54:43;70756.38;;;14.67;100.00
23131;BME280;11734;51.046;13.778;2022-09-12T01:57:22;70782.38;;;14.66;100.00
23131;BME280;11734;51.046;13.778;2022-09-12T01:59:56;70744.25;;;14.68;100.00
23131;BME280;11734;51.046;13.778;2022-09-12T02:02:35;70765.84;;;14.66;100.00
23131;BME280;11734;51.046;13.778;2022-09-12T02:05:24;70792.44;;;14.66;100.00
23131;BME280;11734;51.046;13.778;2022-09-12T02:08:00;70769.69;;;14.67;100.00
23131;BME280;11734;51.046;13.778;2022-09-12T02:10:33;70779.44;;;14.68;100.00
23131;BME280;11734;51.046;13.778;2022-09-12T02:13:14;70790.34;;;14.71;100.00
23131;BME280;11734;51.046;13.778;2022-09-12T02:15:52;70750.75;;;14.69;100.00
23131;BME280;11734;51.046;13.778;2022-09-12T02:18:26;70784.16;;;14.68;100.00
23131;BME280;11734;51.046;13.778;2022-09-12T02:20:57;70744.03;;;14.60;100.00
23131;BME280;11734;51.046;13.778;2022-09-12T02:23:27;70767.03;;;14.62;100.00
23131;BME280;11734;51.046;13.778;2022-09-12T02:26:02;70788.91;;;14.62;100.00
23131;BME280;11734;51.046;13.778;2022-09-12T02:28:37;70771.78;;;14.61;100.00
23131;BME280;11734;51.046;13.778;2022-09-12T02:37:15;70767.03;;;14.62;100.00
23131;BME280;11734;51.046;13.778;2022-09-12T02:39:44;70772.94;;;14.62;100.00
23131;BME280;11734;51.046;13.778;2022-09-12T02:42:13;70771.78;;;14.61;100.00
23131;BME280;11734;51.046;13.778;2022-09-12T02:44:41;70747.25;;;14.61;100.00
23131;BME280;11734;51.046;13.778;2022-09-12T02:47:14;70761.44;;;14.59;100.00
23131;BME280;11734;51.046;13.778;2022-09-12T02:49:44;70800.47;;;14.56;100.00
23131;BME280;11734;51.046;13.778;2022-09-12T02:52:12;70754.69;;;14.56;100.00
23131;BME280;11734;51.046;13.778;2022-09-12T02:54:40;70784.81;;;14.54;100.00
23131;BME280;11734;51.046;13.778;2022-09-12T02:57:20;70791.03;;;14.53;100.00
23131;BME280;11734;51.046;13.778;2022-09-12T02:59:51;70770.09;;;14.46;100.00
23131;BME280;11734;51.046;13.778;2022-09-12T03:02:49;70741.47;;;14.42;100.00
23131;BME280;11734;51.046;13.778;2022-09-12T03:05:55;70749.16;;;14.40;100.00
23131;BME280;11734;51.046;13.778;2022-09-12T03:11:39;70753.88;;;14.39;100.00
23131;BME280;11734;51.046;13.778;2022-09-12T03:14:34;70753.03;;;14.36;100.00
23131;BME280;11734;51.046;13.778;2022-09-12T03:17:21;70750.03;;;14.38;100.00
23131;BME280;11734;51.046;13.778;2022-09-12T03:25:12;70751.19;;;14.48;100.00
23131;BME280;11734;51.046;13.778;2022-09-12T03:28:03;70783.09;;;14.48;100.00
23131;BME280;11734;51.046;13.778;2022-09-12T03:30:42;70769.19;;;14.52;100.00
23131;BME280;11734;51.046;13.778;2022-09-12T03:33:18;70791.91;;;14.51;100.00
23131;BME280;11734;51.046;13.778;2022-09-12T03:35:47;70813.19;;;14.51;100.00
23131;BME280;11734;51.046;13.778;2022-09-12T03:38:16;70794.59;;;14.51;100.00
23131;BME280;11734;51.046;13.778;2022-09-12T03:40:43;70823.81;;;14.51;100.00
23131;BME280;11734;51.046;13.778;2022-09-12T03:43:15;70787.19;;;14.52;100.00
23131;BME280;11734;51.046;13.778;2022-09-12T03:45:42;70781.00;;;14.53;100.00
23131;BME280;11734;51.046;13.778;2022-09-12T03:48:10;70806.06;;;14.54;100.00
23131;BME280;11734;51.046;13.778;2022-09-12T03:50:38;70796.63;;;14.55;100.00
23131;BME280;11734;51.046;13.778;2022-09-12T03:53:05;70808.75;;;14.54;100.00
23131;BME280;11734;51.046;13.778;2022-09-12T03:55:32;70790.72;;;14.55;100.00
23131;BME280;11734;51.046;13.778;2022-09-12T03:58:00;70796.63;;;14.55;100.00
23131;BME280;11734;51.046;13.778;2022-09-12T04:00:27;70777.13;;;14.57;100.00
23131;BME280;11734;51.046;13.778;2022-09-12T04:02:56;70812.84;;;14.58;100.00
23131;BME280;11734;51.046;13.778;2022-09-12T04:05:24;70785.38;;;14.59;100.00
23131;BME280;11734;51.046;13.778;2022-09-12T04:07:52;70817.88;;;14.60;100.00
23131;BME280;11734;51.046;13.778;2022-09-12T04:10:19;70798.66;;;14.64;100.00
23131;BME280;11734;51.046;13.778;2022-09-12T04:12:47;70850.34;;;14.65;100.00
23131;BME280;11734;51.046;13.778;2022-09-12T04:15:14;70797.75;;;14.66;100.00
23131;BME280;11734;51.046;13.778;2022-09-12T04:17:42;70802.75;;;14.68;100.00
23131;BME280;11734;51.046;13.778;2022-09-12T04:20:09;70777.03;;;14.71;100.00
23131;BME280;11734;51.046;13.778;2022-09-12T04:22:37;70774.69;;;14.69;100.00
23131;BME280;11734;51.046;13.778;2022-09-12T04:25:05;70786.22;;;14.67;100.00
23131;BME280;11734;51.046;13.778;2022-09-12T04:27:33;70805.75;;;14.66;100.00
23131;BME280;11734;51.046;13.778;2022-09-12T04:30:00;70762.38;;;14.53;100.00
23131;BME280;11734;51.046;13.778;2022-09-12T04:32:29;70763.00;;;14.49;100.00
23131;BME280;11734;51.046;13.778;2022-09-12T04:34:59;70749.13;;;14.49;100.00
23131;BME280;11734;51.046;13.778;2022-09-12T04:37:26;70708.66;;;14.44;100.00
23131;BME280;11734;51.046;13.778;2022-09-12T04:39:54;70726.94;;;14.50;100.00
23131;BME280;11734;51.046;13.778;2022-09-12T04:42:24;70745.53;;;14.55;100.00
23131;BME280;11734;51.046;13.778;2022-09-12T04:44:51;70734.88;;;14.59;100.00
23131;BME280;11734;51.046;13.778;2022-09-12T04:47:19;70745.19;;;14.61;100.00
23131;BME280;11734;51.046;13.778;2022-09-12T04:49:48;70756.09;;;14.64;100.00
23131;BME280;11734;51.046;13.778;2022-09-12T04:52:17;70781.81;;;14.66;100.00
23131;BME280;11734;51.046;13.778;2022-09-12T04:54:44;70726.28;;;14.63;100.00
23131;BME280;11734;51.046;13.778;2022-09-12T04:57:11;70729.25;;;14.61;100.00
23131;BME280;11734;51.046;13.778;2022-09-12T04:59:39;70714.78;;;14.60;100.00
23131;BME280;11734;51.046;13.778;2022-09-12T05:02:07;70746.69;;;14.60;100.00
23131;BME280;11734;51.046;13.778;2022-09-12T05:04:34;70743.69;;;14.62;100.00
23131;BME280;11734;51.046;13.778;2022-09-12T05:07:02;70741.03;;;14.62;100.00
23131;BME280;11734;51.046;13.778;2022-09-12T05:09:29;70703.53;;;14.65;100.00
23131;BME280;11734;51.046;13.778;2022-09-12T05:11:57;70693.78;;;14.63;100.00
23131;BME280;11734;51.046;13.778;2022-09-12T05:14:31;70727.50;;;14.55;100.00
23131;BME280;11734;51.046;13.778;2022-09-12T05:16:59;70720.69;;;14.61;100.00
23131;BME280;11734;51.046;13.778;2022-09-12T05:19:29;70708.50;;;14.67;100.00
23131;BME280;11734;51.046;13.778;2022-09-12T05:21:57;70711.47;;;14.69;100.00
23131;BME280;11734;51.046;13.778;2022-09-12T05:24:25;70735.66;;;14.72;100.00
23131;BME280;11734;51.046;13.778;2022-09-12T05:26:53;70768.44;;;14.75;100.00
23131;BME280;11734;51.046;13.778;2022-09-12T05:29:20;70743.00;;;14.80;100.00
23131;BME280;11734;51.046;13.778;2022-09-12T05:31:48;70711.34;;;14.83;100.00
23131;BME280;11734;51.046;13.778;2022-09-12T05:34:19;70767.50;;;14.85;100.00
23131;BME280;11734;51.046;13.778;2022-09-12T05:36:46;70753.28;;;14.87;100.00
23131;BME280;11734;51.046;13.778;2022-09-12T05:39:13;70728.47;;;14.88;100.00
23131;BME280;11734;51.046;13.778;2022-09-12T05:41:41;70728.72;;;14.91;100.00
23131;BME280;11734;51.046;13.778;2022-09-12T05:44:11;70781.03;;;14.92;100.00
23131;BME280;11734;51.046;13.778;2022-09-12T05:46:42;70768.03;;;14.95;100.00
23131;BME280;11734;51.046;13.778;2022-09-12T05:49:12;70771.00;;;14.93;100.00
23131;BME280;11734;51.046;13.778;2022-09-12T05:51:42;70791.34;;;14.99;100.00
23131;BME280;11734;51.046;13.778;2022-09-12T05:54:13;70779.78;;;15.05;100.00
23131;BME280;11734;51.046;13.778;2022-09-12T05:56:43;70840.94;;;15.09;100.00
23131;BME280;11734;51.046;13.778;2022-09-12T05:59:19;70815.78;;;15.13;100.00
23131;BME280;11734;51.046;13.778;2022-09-12T06:01:47;70811.63;;;15.19;100.00
23131;BME280;11734;51.046;13.778;2022-09-12T06:04:15;70819.31;;;15.16;100.00
23131;BME280;11734;51.046;13.778;2022-09-12T06:06:44;70808.13;;;15.11;100.00
23131;BME280;11734;51.046;13.778;2022-09-12T06:09:14;70842.38;;;15.18;100.00
23131;BME280;11734;51.046;13.778;2022-09-12T06:11:42;70852.38;;;15.26;100.00
23131;BME280;11734;51.046;13.778;2022-09-12T06:14:11;70859.44;;;15.32;100.00
23131;BME280;11734;51.046;13.778;2022-09-12T06:16:40;70839.31;;;15.33;100.00
23131;BME280;11734;51.046;13.778;2022-09-12T06:19:13;70842.25;;;15.36;100.00
23131;BME280;11734;51.046;13.778;2022-09-12T06:21:41;70877.38;;;15.45;100.00
23131;BME280;11734;51.046;13.778;2022-09-12T06:24:09;70843.38;;;15.41;100.00
23131;BME280;11734;51.046;13.778;2022-09-12T06:26:37;70870.56;;;15.51;100.00
23131;BME280;11734;51.046;13.778;2022-09-12T06:29:04;70873.44;;;15.63;100.00
23131;BME280;11734;51.046;13.778;2022-09-12T06:31:35;70878.78;;;15.63;100.00
23131;BME280;11734;51.046;13.778;2022-09-12T06:34:08;70848.88;;;15.62;100.00
23131;BME280;11734;51.046;13.778;2022-09-12T06:36:44;70829.09;;;15.56;100.00
23131;BME280;11734;51.046;13.778;2022-09-12T06:39:19;70842.13;;;15.59;100.00
23131;BME280;11734;51.046;13.778;2022-09-12T06:41:49;70811.88;;;15.65;100.00
23131;BME280;11734;51.046;13.778;2022-09-12T06:44:21;70873.34;;;15.76;100.00
23131;BME280;11734;51.046;13.778;2022-09-12T06:46:49;70834.31;;;15.70;100.00
23131;BME280;11734;51.046;13.778;2022-09-12T06:49:16;70837.56;;;15.75;100.00
23131;BME280;11734;51.046;13.778;2022-09-12T06:51:44;70872.34;;;15.91;100.00
23131;BME280;11734;51.046;13.778;2022-09-12T06:54:13;70910.41;;;16.08;100.00
23131;BME280;11734;51.046;13.778;2022-09-12T06:56:42;70881.34;;;16.15;100.00
23131;BME280;11734;51.046;13.778;2022-09-12T06:59:10;70867.38;;;16.19;100.00
23131;BME280;11734;51.046;13.778;2022-09-12T07:01:37;70899.59;;;16.26;100.00
23131;BME280;11734;51.046;13.778;2022-09-12T07:04:06;70874.47;;;16.21;100.00
23131;BME280;11734;51.046;13.778;2022-09-12T07:06:39;70872.41;;;16.21;100.00
23131;BME280;11734;51.046;13.778;2022-09-12T07:09:10;70842.94;;;16.00;100.00
23131;BME280;11734;51.046;13.778;2022-09-12T07:11:39;70863.69;;;16.00;100.00
23131;BME280;11734;51.046;13.778;2022-09-12T07:14:08;70899.75;;;16.08;100.00
23131;BME280;11734;51.046;13.778;2022-09-12T07:16:37;70878.34;;;16.17;100.00
23131;BME280;11734;51.046;13.778;2022-09-12T07:19:06;70925.13;;;16.21;100.00
23131;BME280;11734;51.046;13.778;2022-09-12T07:21:34;70915.59;;;16.26;100.00
23131;BME280;11734;51.046;13.778;2022-09-12T07:24:09;70923.91;;;16.24;100.00
23131;BME280;11734;51.046;13.778;2022-09-12T07:26:38;70904.66;;;16.24;100.00
23131;BME280;11734;51.046;13.778;2022-09-12T07:29:06;70907.88;;;16.29;100.00
23131;BME280;11734;51.046;13.778;2022-09-12T07:31:56;70931.22;;;16.37;100.00
23131;BME280;11734;51.046;13.778;2022-09-12T07:34:24;70919.66;;;16.39;100.00
23131;BME280;11734;51.046;13.778;2022-09-12T07:36:51;70921.34;;;16.49;100.00
23131;BME280;11734;51.046;13.778;2022-09-12T07:39:18;70922.75;;;16.58;100.00
23131;BME280;11734;51.046;13.778;2022-09-12T07:41:46;70980.44;;;16.73;100.00
23131;BME280;11734;51.046;13.778;2022-09-12T07:44:13;70967.34;;;16.75;100.00
23131;BME280;11734;51.046;13.778;2022-09-12T07:46:40;70984.03;;;16.67;100.00
23131;BME280;11734;51.046;13.778;2022-09-12T07:49:10;70985.06;;;16.86;100.00
23131;BME280;11734;51.046;13.778;2022-09-12T07:51:38;71000.13;;;16.92;100.00
23131;BME280;11734;51.046;13.778;2022-09-12T07:58:18;71017.50;;;17.05;100.00
23131;BME280;11734;51.046;13.778;2022-09-12T08:00:46;70996.44;;;17.07;100.00
23131;BME280;11734;51.046;13.778;2022-09-12T08:03:13;71047.75;;;17.08;100.00
23131;BME280;11734;51.046;13.778;2022-09-12T08:05:41;71031.06;;;17.16;100.00
23131;BME280;11734;51.046;13.778;2022-09-12T08:08:08;71046.97;;;17.30;100.00
23131;BME280;11734;51.046;13.778;2022-09-12T08:10:36;71078.91;;;17.39;100.00
23131;BME280;11734;51.046;13.778;2022-09-12T08:13:03;71087.81;;;17.42;100.00
23131;BME280;11734;51.046;13.778;2022-09-12T08:15:30;71084.28;;;17.34;100.00
23131;BME280;11734;51.046;13.778;2022-09-12T08:17:58;71102.34;;;17.43;100.00
23131;BME280;11734;51.046;13.778;2022-09-12T08:20:25;71032.06;;;17.35;100.00
23131;BME280;11734;51.046;13.778;2022-09-12T08:22:54;71056.50;;;17.24;100.00
23131;BME280;11734;51.046;13.778;2022-09-12T08:25:22;71081.75;;;17.21;100.00
23131;BME280;11734;51.046;13.778;2022-09-12T08:27:50;71068.38;;;17.25;100.00
23131;BME280;11734;51.046;13.778;2022-09-12T08:30:18;71038.06;;;17.27;100.00
23131;BME280;11734;51.046;13.778;2022-09-12T08:32:45;71079.50;;;17.39;100.00
23131;BME280;11734;51.046;13.778;2022-09-12T08:35:13;71113.84;;;17.51;100.00
23131;BME280;11734;51.046;13.778;2022-09-12T08:37:43;71094.69;;;17.71;100.00
23131;BME280;11734;51.046;13.778;2022-09-12T08:40:15;71166.97;;;17.92;100.00
23131;BME280;11734;51.046;13.778;2022-09-12T08:42:51;71232.06;;;18.20;100.00
23131;BME280;11734;51.046;13.778;2022-09-12T08:45:27;71199.34;;;18.24;100.00
23131;BME280;11734;51.046;13.778;2022-09-12T08:47:57;71145.25;;;17.94;100.00
23131;BME280;11734;51.046;13.778;2022-09-12T08:50:27;71188.47;;;18.12;100.00
23131;BME280;11734;51.046;13.778;2022-09-12T08:53:22;71325.53;;;18.77;100.00
23131;BME280;11734;51.046;13.778;2022-09-12T08:55:53;71418.28;;;19.56;100.00
23131;BME280;11734;51.046;13.778;2022-09-12T08:58:23;71489.91;;;20.08;100.00
23131;BME280;11734;51.046;13.778;2022-09-12T09:06:56;71378.53;;;19.41;100.00
23131;BME280;11734;51.046;13.778;2022-09-12T09:17:44;71663.25;;;20.97;99.20
23131;BME280;11734;51.046;13.778;2022-09-12T09:20:27;71586.41;;;20.52;98.19
23131;BME280;11734;51.046;13.778;2022-09-12T09:23:22;71618.69;;;20.77;93.62
23131;BME280;11734;51.046;13.778;2022-09-12T09:28:54;71614.72;;;20.85;96.14
23131;BME280;11734;51.046;13.778;2022-09-12T09:31:27;71774.69;;;21.87;91.72
23131;BME280;11734;51.046;13.778;2022-09-12T09:33:57;71851.16;;;22.27;86.55
23131;BME280;11734;51.046;13.778;2022-09-12T09:42:43;71779.25;;;21.80;87.83
23131;BME280;11734;51.046;13.778;2022-09-12T09:45:19;71966.25;;;22.95;83.13
23131;BME280;11734;51.046;13.778;2022-09-12T09:47:53;72236.38;;;24.17;77.14
23131;BME280;11734;51.046;13.778;2022-09-12T09:50:24;72173.28;;;23.93;74.06
23131;BME280;11734;51.046;13.778;2022-09-12T09:52:52;72324.75;;;24.65;71.57
23131;BME280;11734;51.046;13.778;2022-09-12T09:55:26;72463.63;;;25.53;69.72
23131;BME280;11734;51.046;13.778;2022-09-12T09:57:54;72619.44;;;26.20;62.75
23131;BME280;11734;51.046;13.778;2022-09-12T10:10:58;72566.69;;;25.99;52.42
23131;BME280;11734;51.046;13.778;2022-09-12T10:16:28;72318.19;;;24.59;56.47
23131;BME280;11734;51.046;13.778;2022-09-12T10:19:01;72163.84;;;23.76;59.79
23131;BME280;11734;51.046;13.778;2022-09-12T10:24:36;72249.59;;;24.15;59.29
23131;BME280;11734;51.046;13.778;2022-09-12T10:27:14;72238.06;;;24.28;59.72
23131;BME280;11734;51.046;13.778;2022-09-12T10:32:39;72046.75;;;23.07;68.54
23131;BME280;11734;51.046;13.778;2022-09-12T10:38:05;71878.88;;;22.35;67.17
23131;BME280;11734;51.046;13.778;2022-09-12T10:43:17;71864.13;;;22.13;72.64
23131;BME280;11734;51.046;13.778;2022-09-12T10:45:49;71796.84;;;21.83;72.91
23131;BME280;11734;51.046;13.778;2022-09-12T10:48:30;71772.28;;;21.60;73.09
23131;BME280;11734;51.046;13.778;2022-09-12T10:50:59;71780.25;;;21.69;77.69
23131;BME280;11734;51.046;13.778;2022-09-12T10:53:31;71819.47;;;21.93;71.98
23131;BME280;11734;51.046;13.778;2022-09-12T10:56:20;71739.41;;;21.59;70.33
23131;BME280;11734;51.046;13.778;2022-09-12T10:59:22;71776.59;;;21.75;71.08
23131;BME280;11734;51.046;13.778;2022-09-12T11:02:03;71921.00;;;22.75;68.26
23131;BME280;11734;51.046;13.778;2022-09-12T11:07:44;72510.63;;;25.76;58.10
23131;BME280;11734;51.046;13.778;2022-09-12T11:10:44;72740.25;;;26.84;50.72
23131;BME280;11734;51.046;13.778;2022-09-12T11:16:15;73122.22;;;28.62;43.59
23131;BME280;11734;51.046;13.778;2022-09-12T11:21:39;73156.56;;;28.77;42.22
23131;BME280;11734;51.046;13.778;2022-09-12T11:24:22;73201.41;;;29.03;42.85
23131;BME280;11734;51.046;13.778;2022-09-12T11:29:47;73278.66;;;29.61;36.17
23131;BME280;11734;51.046;13.778;2022-09-12T11:35:21;73114.63;;;28.71;39.65
23131;BME280;11734;51.046;13.778;2022-09-12T11:40:48;72875.88;;;27.57;43.07
23131;BME280;11734;51.046;13.778;2022-09-12T11:46:00;72800.41;;;27.28;41.55
23131;BME280;11734;51.046;13.778;2022-09-12T11:51:17;72729.03;;;26.90;40.52
23131;BME280;11734;51.046;13.778;2022-09-12T11:53:58;72891.81;;;27.59;40.39
23131;BME280;11734;51.046;13.778;2022-09-12T11:56:26;73082.50;;;28.42;42.57
23131;BME280;11734;51.046;13.778;2022-09-12T11:58:59;73222.91;;;28.96;40.26
23131;BME280;11734;51.046;13.778;2022-09-12T12:01:37;73170.09;;;28.86;41.57
23131;BME280;11734;51.046;13.778;2022-09-12T12:04:17;72954.88;;;27.94;43.14
23131;BME280;11734;51.046;13.778;2022-09-12T12:07:02;72816.28;;;27.09;45.42
23131;BME280;11734;51.046;13.778;2022-09-12T12:09:31;72665.09;;;26.66;45.65
23131;BME280;11734;51.046;13.778;2022-09-12T12:12:03;72597.66;;;26.34;45.74
23131;BME280;11734;51.046;13.778;2022-09-12T12:14:44;72456.25;;;25.69;46.86
23131;BME280;11734;51.046;13.778;2022-09-12T12:17:19;72338.38;;;24.85;49.99
23131;BME280;11734;51.046;13.778;2022-09-12T12:20:01;72316.66;;;24.65;51.97
23131;BME280;11734;51.046;13.778;2022-09-12T12:22:34;72269.34;;;24.52;53.00
23131;BME280;11734;51.046;13.778;2022-09-12T12:38:32;72176.16;;;24.05;52.75
23131;BME280;11734;51.046;13.778;2022-09-12T12:43:47;72135.03;;;23.79;55.25
23131;BME280;11734;51.046;13.778;2022-09-12T12:46:19;72141.28;;;23.82;54.68
23131;BME280;11734;51.046;13.778;2022-09-12T12:49:17;72020.34;;;23.37;53.49
23131;BME280;11734;51.046;13.778;2022-09-12T12:51:56;72020.00;;;23.14;55.15
23131;BME280;11734;51.046;13.778;2022-09-12T12:59:51;71937.63;;;22.85;57.13
23131;BME280;11734;51.046;13.778;2022-09-12T13:02:50;71839.41;;;22.33;56.86
23131;BME280;11734;51.046;13.778;2022-09-12T13:05:21;71867.47;;;22.39;60.03
23131;BME280;11734;51.046;13.778;2022-09-12T13:08:08;71896.91;;;22.57;63.30
23131;BME280;11734;51.046;13.778;2022-09-12T13:10:37;71938.66;;;22.74;59.89
23131;BME280;11734;51.046;13.778;2022-09-12T13:13:06;71949.41;;;22.79;58.67
23131;BME280;11734;51.046;13.778;2022-09-12T13:18:10;71929.94;;;22.78;57.20
23131;BME280;11734;51.046;13.778;2022-09-12T13:21:18;71925.81;;;22.70;58.01
23131;BME280;11734;51.046;13.778;2022-09-12T13:26:34;71945.59;;;22.69;56.23
23131;BME280;11734;51.046;13.778;2022-09-12T13:29:20;71895.13;;;22.55;60.00
23131;BME280;11734;51.046;13.778;2022-09-12T13:31:54;71893.19;;;22.68;61.46
23131;BME280;11734;51.046;13.778;2022-09-12T13:37:44;71955.47;;;22.70;58.72
23131;BME280;11734;51.046;13.778;2022-09-12T13:43:13;71932.97;;;22.72;61.22
23131;BME280;11734;51.046;13.778;2022-09-12T13:45:44;71931.66;;;22.84;60.72
23131;BME280;11734;51.046;13.778;2022-09-12T13:48:15;71942.22;;;22.77;62.38
23131;BME280;11734;51.046;13.778;2022-09-12T13:50:59;71959.16;;;22.89;60.56
23131;BME280;11734;51.046;13.778;2022-09-12T13:53:42;71931.13;;;22.79;57.88
23131;BME280;11734;51.046;13.778;2022-09-12T13:56:16;71933.56;;;22.72;53.70
23131;BME280;11734;51.046;13.778;2022-09-12T13:58:59;71872.19;;;22.47;54.69
23131;BME280;11734;51.046;13.778;2022-09-12T14:01:39;71857.34;;;22.35;56.75
23131;BME280;11734;51.046;13.778;2022-09-12T14:04:25;71851.97;;;22.35;56.78
23131;BME280;11734;51.046;13.778;2022-09-12T14:07:18;71795.25;;;22.23;56.94
23131;BME280;11734;51.046;13.778;2022-09-12T14:09:54;71847.63;;;22.20;57.30
23131;BME280;11734;51.046;13.778;2022-09-12T14:14:56;71863.16;;;22.24;59.81
23131;BME280;11734;51.046;13.778;2022-09-12T14:20:04;71779.78;;;21.85;62.68
23131;BME280;11734;51.046;13.778;2022-09-12T14:22:34;71776.81;;;21.82;63.75
23131;BME280;11734;51.046;13.778;2022-09-12T14:25:03;71787.81;;;21.89;62.16
23131;BME280;11734;51.046;13.778;2022-09-12T14:27:42;71751.97;;;21.86;60.15
23131;BME280;11734;51.046;13.778;2022-09-12T14:30:29;71713.72;;;21.86;59.82
23131;BME280;11734;51.046;13.778;2022-09-12T14:33:21;71719.31;;;21.68;63.91
23131;BME280;11734;51.046;13.778;2022-09-12T14:35:51;71723.44;;;21.71;61.99
23131;BME280;11734;51.046;13.778;2022-09-12T14:38:25;71760.19;;;21.73;64.50
23131;BME280;11734;51.046;13.778;2022-09-12T14:41:01;71710.22;;;21.78;64.02
23131;BME280;11734;51.046;13.778;2022-09-12T14:43:44;71735.06;;;21.74;59.22
23131;BME280;11734;51.046;13.778;2022-09-12T14:46:21;71734.03;;;21.59;59.94
23131;BME280;11734;51.046;13.778;2022-09-12T14:48:52;71697.16;;;21.42;60.53
23131;BME280;11734;51.046;13.778;2022-09-12T14:51:27;71692.75;;;21.36;60.42
23131;BME280;11734;51.046;13.778;2022-09-12T14:53:57;71698.75;;;21.32;60.60
23131;BME280;11734;51.046;13.778;2022-09-12T14:56:40;71673.22;;;21.19;60.44
23131;BME280;11734;51.046;13.778;2022-09-12T15:02:20;71573.78;;;20.89;61.42
23131;BME280;11734;51.046;13.778;2022-09-12T15:12:44;71604.13;;;21.01;61.94
23131;BME280;11734;51.046;13.778;2022-09-12T15:15:19;71627.69;;;21.01;61.96
23131;BME280;11734;51.046;13.778;2022-09-12T15:17:46;71594.28;;;21.00;62.36
23131;BME280;11734;51.046;13.778;2022-09-12T15:20:14;71569.59;;;20.90;62.07
23131;BME280;11734;51.046;13.778;2022-09-12T15:22:41;71574.75;;;20.83;62.98
23131;BME280;11734;51.046;13.778;2022-09-12T15:25:11;71595.38;;;20.80;64.69
23131;BME280;11734;51.046;13.778;2022-09-12T15:27:39;71562.59;;;20.75;65.79
23131;BME280;11734;51.046;13.778;2022-09-12T15:30:09;71589.44;;;20.75;66.41
23131;BME280;11734;51.046;13.778;2022-09-12T15:32:41;71570.66;;;20.75;66.90
23131;BME280;11734;51.046;13.778;2022-09-12T15:35:21;71578.75;;;20.70;67.97
23131;BME280;11734;51.046;13.778;2022-09-12T15:37:49;71576.78;;;20.62;68.93
23131;BME280;11734;51.046;13.778;2022-09-12T15:40:17;71558.88;;;20.60;67.92
23131;BME280;11734;51.046;13.778;2022-09-12T15:42:45;71513.03;;;20.53;67.96
23131;BME280;11734;51.046;13.778;2022-09-12T15:45:17;71514.00;;;20.43;68.20
23131;BME280;11734;51.046;13.778;2022-09-12T15:47:46;71478.25;;;20.40;68.92
23131;BME280;11734;51.046;13.778;2022-09-12T15:50:13;71481.63;;;20.31;69.72
23131;BME280;11734;51.046;13.778;2022-09-12T15:52:41;71491.53;;;20.23;70.75
23131;BME280;11734;51.046;13.778;2022-09-12T15:55:26;71505.56;;;20.19;71.39
23131;BME280;11734;51.046;13.778;2022-09-12T15:57:53;71447.53;;;20.13;72.68
23131;BME280;11734;51.046;13.778;2022-09-12T16:00:22;71444.88;;;20.09;73.76